Airfield :
LOGIN :

Register | Disclaimer

   EN    FR    IT 

 










Legend :    VFR   Marginal VFR   IFR   Intensive IFR   Very Intensive IFR
Visi :
Ceiling :
>= 8 km
>= 3000ft
5 to 8 km
1000 to 3000 ft
1500m to 5 km
500 to 1000 ft
800 to 1500m
200 to 500 ft
< 800m
< 200 ft
Symbols :   Thunderstorms  Fog  Heavy snow  Heavy precipitations  Wind > 20 kt
SIGMETs :     Misc.  Thunderstorms  Icing  Turbulence  Mountain Waves  Volcanic Ashes






- Airport Elevation : 2776 ft
- IATA code : VLL


LEVD - Valladolid

CURRENT METAR :
  • 222200Z AUTO 03007KT 010V070 9999 FEW019 SCT025 BKN031 13/10 Q1021

EXPIRED METARs :
  • 222130Z AUTO 04006KT 9999 FEW044 13/11 Q1021
  • 222100Z AUTO 03007KT CAVOK 14/11 Q1021
  • 222030Z AUTO 05009KT CAVOK 14/11 Q1020
  • 222000Z AUTO 03009KT CAVOK 14/11 Q1019
  • 221930Z 03006KT 9999 SCT040TCU 14/11 Q1019

TAF TAF LEVD
Valid from the 22 at 21:00 until the 23 at 21:00 UTC


222000Z 2221/2321 03008KT 9999 OVC040 TX22/2315Z TN07/2306Z



MET'MAP, your aeronautical weather chart ! - Copyright ORBIFLY December 2007 - Disclaimer

ORBIFLY MET'MAP TEAM :

Programming & Development : Alexandra Zaïnal
Concept & original design : Baudouin d'Aumeries
Assistance for programming : Marc-Olivier Méhu
Technical & hardware support : Manuel Goepfert

Contact : metmap@orbifly.com




SOURCES & CREDITS :

   NOAA